sensor_id;sensor_type;location;lat;lon;timestamp;temperature;humidity
41533;DHT22;27262;-35.248;149.138;2023-02-03T00:01:13;21.80;56.40
41533;DHT22;27262;-35.248;149.138;2023-02-03T00:03:43;21.80;56.30
41533;DHT22;27262;-35.248;149.138;2023-02-03T00:06:14;21.80;56.30
41533;DHT22;27262;-35.248;149.138;2023-02-03T00:08:44;21.80;56.40
41533;DHT22;27262;-35.248;149.138;2023-02-03T00:11:15;21.80;56.40
41533;DHT22;27262;-35.248;149.138;2023-02-03T00:13:45;21.80;56.40
41533;DHT22;27262;-35.248;149.138;2023-02-03T00:16:16;21.80;56.40
41533;DHT22;27262;-35.248;149.138;2023-02-03T00:18:46;21.80;56.40
41533;DHT22;27262;-35.248;149.138;2023-02-03T00:21:17;21.80;56.60
41533;DHT22;27262;-35.248;149.138;2023-02-03T00:23:47;21.80;56.40
41533;DHT22;27262;-35.248;149.138;2023-02-03T00:26:18;21.90;56.50
41533;DHT22;27262;-35.248;149.138;2023-02-03T00:28:48;21.80;56.40
41533;DHT22;27262;-35.248;149.138;2023-02-03T00:31:20;21.80;56.40
41533;DHT22;27262;-35.248;149.138;2023-02-03T00:33:55;21.90;56.40
41533;DHT22;27262;-35.248;149.138;2023-02-03T00:36:26;21.90;56.40
41533;DHT22;27262;-35.248;149.138;2023-02-03T00:38:56;21.80;56.30
41533;DHT22;27262;-35.248;149.138;2023-02-03T00:41:29;21.90;56.40
41533;DHT22;27262;-35.248;149.138;2023-02-03T00:44:00;21.90;56.40
41533;DHT22;27262;-35.248;149.138;2023-02-03T00:46:30;21.90;56.40
41533;DHT22;27262;-35.248;149.138;2023-02-03T00:49:00;21.80;56.30
41533;DHT22;27262;-35.248;149.138;2023-02-03T00:51:31;21.90;56.40
41533;DHT22;27262;-35.248;149.138;2023-02-03T00:54:02;21.90;56.40
41533;DHT22;27262;-35.248;149.138;2023-02-03T00:56:33;21.90;56.30
41533;DHT22;27262;-35.248;149.138;2023-02-03T00:59:04;21.90;56.40
41533;DHT22;27262;-35.248;149.138;2023-02-03T01:01:35;21.80;56.30
41533;DHT22;27262;-35.248;149.138;2023-02-03T01:04:05;21.80;56.30
41533;DHT22;27262;-35.248;149.138;2023-02-03T01:06:36;21.80;56.20
41533;DHT22;27262;-35.248;149.138;2023-02-03T01:09:06;21.90;56.00
41533;DHT22;27262;-35.248;149.138;2023-02-03T01:11:37;21.80;55.70
41533;DHT22;27262;-35.248;149.138;2023-02-03T01:14:08;21.90;55.70
41533;DHT22;27262;-35.248;149.138;2023-02-03T01:16:38;21.90;55.80
41533;DHT22;27262;-35.248;149.138;2023-02-03T01:19:09;21.90;55.90
41533;DHT22;27262;-35.248;149.138;2023-02-03T01:21:39;21.90;55.80
41533;DHT22;27262;-35.248;149.138;2023-02-03T01:24:11;21.80;55.70
41533;DHT22;27262;-35.248;149.138;2023-02-03T01:26:43;21.90;55.50
41533;DHT22;27262;-35.248;149.138;2023-02-03T01:29:13;21.90;55.40
41533;DHT22;27262;-35.248;149.138;2023-02-03T01:31:44;21.90;55.30
41533;DHT22;27262;-35.248;149.138;2023-02-03T01:34:14;21.90;55.10
41533;DHT22;27262;-35.248;149.138;2023-02-03T01:36:45;21.90;55.20
41533;DHT22;27262;-35.248;149.138;2023-02-03T01:39:15;21.90;55.20
41533;DHT22;27262;-35.248;149.138;2023-02-03T01:41:46;21.90;55.30
41533;DHT22;27262;-35.248;149.138;2023-02-03T01:44:51;21.90;55.40
41533;DHT22;27262;-35.248;149.138;2023-02-03T01:50:35;21.90;55.10
41533;DHT22;27262;-35.248;149.138;2023-02-03T01:53:11;21.90;55.10
41533;DHT22;27262;-35.248;149.138;2023-02-03T01:55:44;21.90;55.10
41533;DHT22;27262;-35.248;149.138;2023-02-03T01:58:20;21.90;55.00
41533;DHT22;27262;-35.248;149.138;2023-02-03T02:00:55;21.90;55.30
41533;DHT22;27262;-35.248;149.138;2023-02-03T02:03:47;21.90;55.30
41533;DHT22;27262;-35.248;149.138;2023-02-03T02:06:19;21.90;55.40
41533;DHT22;27262;-35.248;149.138;2023-02-03T02:08:51;21.90;55.50
41533;DHT22;27262;-35.248;149.138;2023-02-03T02:11:22;21.90;55.50
41533;DHT22;27262;-35.248;149.138;2023-02-03T02:13:54;21.90;55.60
41533;DHT22;27262;-35.248;149.138;2023-02-03T02:22:38;21.90;56.20
41533;DHT22;27262;-35.248;149.138;2023-02-03T02:44:58;21.90;55.80
41533;DHT22;27262;-35.248;149.138;2023-02-03T02:47:31;22.00;55.90
41533;DHT22;27262;-35.248;149.138;2023-02-03T02:52:42;21.90;55.80
41533;DHT22;27262;-35.248;149.138;2023-02-03T02:55:33;21.90;55.70
41533;DHT22;27262;-35.248;149.138;2023-02-03T02:58:08;22.00;55.70
41533;DHT22;27262;-35.248;149.138;2023-02-03T03:00:40;21.90;55.70
41533;DHT22;27262;-35.248;149.138;2023-02-03T03:03:18;22.00;55.80
41533;DHT22;27262;-35.248;149.138;2023-02-03T03:05:54;22.00;55.80
41533;DHT22;27262;-35.248;149.138;2023-02-03T03:08:35;22.00;55.90
41533;DHT22;27262;-35.248;149.138;2023-02-03T03:11:07;22.00;55.90
41533;DHT22;27262;-35.248;149.138;2023-02-03T03:13:45;22.00;55.90
41533;DHT22;27262;-35.248;149.138;2023-02-03T03:16:19;22.00;55.90
41533;DHT22;27262;-35.248;149.138;2023-02-03T03:18:59;22.00;56.00
41533;DHT22;27262;-35.248;149.138;2023-02-03T03:21:44;22.00;56.00
41533;DHT22;27262;-35.248;149.138;2023-02-03T03:24:19;22.00;56.00
41533;DHT22;27262;-35.248;149.138;2023-02-03T03:27:08;22.00;56.10
41533;DHT22;27262;-35.248;149.138;2023-02-03T03:29:40;22.00;56.10
41533;DHT22;27262;-35.248;149.138;2023-02-03T03:32:11;22.00;56.10
41533;DHT22;27262;-35.248;149.138;2023-02-03T03:34:42;22.00;56.10
41533;DHT22;27262;-35.248;149.138;2023-02-03T03:39:58;22.10;56.10
41533;DHT22;27262;-35.248;149.138;2023-02-03T03:42:54;22.10;56.20
41533;DHT22;27262;-35.248;149.138;2023-02-03T03:48:22;22.10;56.20
41533;DHT22;27262;-35.248;149.138;2023-02-03T03:53:59;22.10;56.10
41533;DHT22;27262;-35.248;149.138;2023-02-03T03:56:38;22.10;56.10
41533;DHT22;27262;-35.248;149.138;2023-02-03T03:59:11;22.10;56.00
41533;DHT22;27262;-35.248;149.138;2023-02-03T04:01:43;22.10;56.00
41533;DHT22;27262;-35.248;149.138;2023-02-03T04:04:15;22.10;56.00
41533;DHT22;27262;-35.248;149.138;2023-02-03T04:06:48;22.10;55.90
41533;DHT22;27262;-35.248;149.138;2023-02-03T04:09:18;22.10;55.90
41533;DHT22;27262;-35.248;149.138;2023-02-03T04:11:48;22.10;55.90
41533;DHT22;27262;-35.248;149.138;2023-02-03T04:14:33;22.10;55.80
41533;DHT22;27262;-35.248;149.138;2023-02-03T04:17:07;22.10;55.90
41533;DHT22;27262;-35.248;149.138;2023-02-03T04:19:37;22.10;55.90
41533;DHT22;27262;-35.248;149.138;2023-02-03T04:22:07;22.10;55.90
41533;DHT22;27262;-35.248;149.138;2023-02-03T04:24:38;22.10;55.90
41533;DHT22;27262;-35.248;149.138;2023-02-03T04:27:08;22.10;55.90
41533;DHT22;27262;-35.248;149.138;2023-02-03T04:29:38;22.10;55.90
41533;DHT22;27262;-35.248;149.138;2023-02-03T04:32:08;22.10;55.90
41533;DHT22;27262;-35.248;149.138;2023-02-03T04:34:38;22.10;55.90
41533;DHT22;27262;-35.248;149.138;2023-02-03T04:37:09;22.10;55.90
41533;DHT22;27262;-35.248;149.138;2023-02-03T04:39:39;22.20;55.90
41533;DHT22;27262;-35.248;149.138;2023-02-03T04:42:09;22.20;55.70
41533;DHT22;27262;-35.248;149.138;2023-02-03T04:44:39;22.20;55.80
41533;DHT22;27262;-35.248;149.138;2023-02-03T04:47:10;22.20;55.60
41533;DHT22;27262;-35.248;149.138;2023-02-03T04:49:41;22.20;55.20
41533;DHT22;27262;-35.248;149.138;2023-02-03T04:52:12;22.30;55.40
41533;DHT22;27262;-35.248;149.138;2023-02-03T04:54:42;22.30;55.40
41533;DHT22;27262;-35.248;149.138;2023-02-03T04:57:13;22.30;55.40
41533;DHT22;27262;-35.248;149.138;2023-02-03T04:59:43;22.30;55.40
41533;DHT22;27262;-35.248;149.138;2023-02-03T05:02:13;22.30;55.50
41533;DHT22;27262;-35.248;149.138;2023-02-03T05:04:43;22.30;55.70
41533;DHT22;27262;-35.248;149.138;2023-02-03T05:07:14;22.30;55.70
41533;DHT22;27262;-35.248;149.138;2023-02-03T05:09:44;22.30;55.80
41533;DHT22;27262;-35.248;149.138;2023-02-03T05:12:14;22.30;55.70
41533;DHT22;27262;-35.248;149.138;2023-02-03T05:14:44;22.30;55.80
41533;DHT22;27262;-35.248;149.138;2023-02-03T05:17:15;22.30;55.80
41533;DHT22;27262;-35.248;149.138;2023-02-03T05:19:45;22.30;55.80
41533;DHT22;27262;-35.248;149.138;2023-02-03T05:22:15;22.30;55.80
41533;DHT22;27262;-35.248;149.138;2023-02-03T05:24:45;22.20;55.60
41533;DHT22;27262;-35.248;149.138;2023-02-03T05:27:15;22.30;55.50
41533;DHT22;27262;-35.248;149.138;2023-02-03T05:29:46;22.30;55.40
41533;DHT22;27262;-35.248;149.138;2023-02-03T05:32:16;22.30;55.50
41533;DHT22;27262;-35.248;149.138;2023-02-03T05:34:46;22.30;55.50
41533;DHT22;27262;-35.248;149.138;2023-02-03T05:37:16;22.30;55.50
41533;DHT22;27262;-35.248;149.138;2023-02-03T05:39:47;22.30;55.60
41533;DHT22;27262;-35.248;149.138;2023-02-03T05:42:17;22.30;55.70
41533;DHT22;27262;-35.248;149.138;2023-02-03T05:44:48;22.30;56.40
41533;DHT22;27262;-35.248;149.138;2023-02-03T05:47:18;22.30;55.70
41533;DHT22;27262;-35.248;149.138;2023-02-03T05:49:48;22.30;55.60
41533;DHT22;27262;-35.248;149.138;2023-02-03T05:52:19;22.40;55.60
41533;DHT22;27262;-35.248;149.138;2023-02-03T05:54:49;22.40;55.50
41533;DHT22;27262;-35.248;149.138;2023-02-03T05:57:19;22.40;55.20
41533;DHT22;27262;-35.248;149.138;2023-02-03T05:59:49;22.40;55.20
41533;DHT22;27262;-35.248;149.138;2023-02-03T06:02:20;22.40;55.20
41533;DHT22;27262;-35.248;149.138;2023-02-03T06:04:50;22.40;55.10
41533;DHT22;27262;-35.248;149.138;2023-02-03T06:07:20;22.40;55.10
41533;DHT22;27262;-35.248;149.138;2023-02-03T06:09:51;22.40;54.90
41533;DHT22;27262;-35.248;149.138;2023-02-03T06:12:21;22.40;55.00
41533;DHT22;27262;-35.248;149.138;2023-02-03T06:14:53;22.40;54.90
41533;DHT22;27262;-35.248;149.138;2023-02-03T06:17:23;22.40;55.00
41533;DHT22;27262;-35.248;149.138;2023-02-03T06:19:53;22.40;55.00
41533;DHT22;27262;-35.248;149.138;2023-02-03T06:22:23;22.40;55.00
41533;DHT22;27262;-35.248;149.138;2023-02-03T06:24:54;22.50;55.10
41533;DHT22;27262;-35.248;149.138;2023-02-03T06:27:24;22.50;55.00
41533;DHT22;27262;-35.248;149.138;2023-02-03T06:29:55;22.50;55.10
41533;DHT22;27262;-35.248;149.138;2023-02-03T06:32:25;22.50;55.00
41533;DHT22;27262;-35.248;149.138;2023-02-03T06:34:55;22.50;54.90
41533;DHT22;27262;-35.248;149.138;2023-02-03T06:37:25;22.50;54.80
41533;DHT22;27262;-35.248;149.138;2023-02-03T06:39:56;22.50;55.00
41533;DHT22;27262;-35.248;149.138;2023-02-03T06:42:26;22.50;55.30
41533;DHT22;27262;-35.248;149.138;2023-02-03T06:44:56;22.50;55.40
41533;DHT22;27262;-35.248;149.138;2023-02-03T06:47:26;22.50;55.40
41533;DHT22;27262;-35.248;149.138;2023-02-03T06:49:57;22.50;55.40
41533;DHT22;27262;-35.248;149.138;2023-02-03T06:52:27;22.50;55.50
41533;DHT22;27262;-35.248;149.138;2023-02-03T06:54:57;22.50;55.50
41533;DHT22;27262;-35.248;149.138;2023-02-03T06:57:27;22.50;55.50
41533;DHT22;27262;-35.248;149.138;2023-02-03T06:59:57;22.50;55.50
41533;DHT22;27262;-35.248;149.138;2023-02-03T07:02:28;22.50;55.50
41533;DHT22;27262;-35.248;149.138;2023-02-03T07:04:58;22.50;55.50
41533;DHT22;27262;-35.248;149.138;2023-02-03T07:07:28;22.50;55.50
41533;DHT22;27262;-35.248;149.138;2023-02-03T07:10:01;22.50;55.50
41533;DHT22;27262;-35.248;149.138;2023-02-03T07:12:31;22.50;55.50
41533;DHT22;27262;-35.248;149.138;2023-02-03T07:15:03;22.50;55.60
41533;DHT22;27262;-35.248;149.138;2023-02-03T07:17:33;22.50;55.60
41533;DHT22;27262;-35.248;149.138;2023-02-03T07:20:05;22.50;55.60
41533;DHT22;27262;-35.248;149.138;2023-02-03T07:22:35;22.50;55.60
41533;DHT22;27262;-35.248;149.138;2023-02-03T07:25:07;22.50;55.60
41533;DHT22;27262;-35.248;149.138;2023-02-03T07:27:37;22.40;55.60
41533;DHT22;27262;-35.248;149.138;2023-02-03T07:30:08;22.50;55.60
41533;DHT22;27262;-35.248;149.138;2023-02-03T07:32:38;22.50;55.60
41533;DHT22;27262;-35.248;149.138;2023-02-03T07:35:09;22.50;55.60
41533;DHT22;27262;-35.248;149.138;2023-02-03T07:37:39;22.50;55.60
41533;DHT22;27262;-35.248;149.138;2023-02-03T07:40:11;22.50;55.60
41533;DHT22;27262;-35.248;149.138;2023-02-03T07:42:44;22.50;55.60
41533;DHT22;27262;-35.248;149.138;2023-02-03T07:45:16;22.40;55.60
41533;DHT22;27262;-35.248;149.138;2023-02-03T07:47:46;22.40;55.60
41533;DHT22;27262;-35.248;149.138;2023-02-03T07:50:17;22.40;56.20
41533;DHT22;27262;-35.248;149.138;2023-02-03T07:52:50;22.40;55.60
41533;DHT22;27262;-35.248;149.138;2023-02-03T07:55:21;22.40;55.50
41533;DHT22;27262;-35.248;149.138;2023-02-03T07:57:54;22.40;55.50
41533;DHT22;27262;-35.248;149.138;2023-02-03T08:00:25;22.40;55.40
41533;DHT22;27262;-35.248;149.138;2023-02-03T08:02:56;22.40;55.40
41533;DHT22;27262;-35.248;149.138;2023-02-03T08:05:26;22.40;55.40
41533;DHT22;27262;-35.248;149.138;2023-02-03T08:07:57;22.40;55.40
41533;DHT22;27262;-35.248;149.138;2023-02-03T08:10:28;22.40;55.40
41533;DHT22;27262;-35.248;149.138;2023-02-03T08:12:58;22.40;55.30
41533;DHT22;27262;-35.248;149.138;2023-02-03T08:15:28;22.40;55.30
41533;DHT22;27262;-35.248;149.138;2023-02-03T08:17:59;22.40;55.30
41533;DHT22;27262;-35.248;149.138;2023-02-03T08:20:29;22.40;55.10
41533;DHT22;27262;-35.248;149.138;2023-02-03T08:22:59;22.40;55.10
41533;DHT22;27262;-35.248;149.138;2023-02-03T08:25:30;22.40;55.10
41533;DHT22;27262;-35.248;149.138;2023-02-03T08:28:00;22.40;55.10
41533;DHT22;27262;-35.248;149.138;2023-02-03T08:30:30;22.40;55.10
41533;DHT22;27262;-35.248;149.138;2023-02-03T08:33:01;22.40;55.10
41533;DHT22;27262;-35.248;149.138;2023-02-03T08:35:31;22.40;55.10
41533;DHT22;27262;-35.248;149.138;2023-02-03T08:38:02;22.40;55.10
41533;DHT22;27262;-35.248;149.138;2023-02-03T08:40:32;22.40;55.20
41533;DHT22;27262;-35.248;149.138;2023-02-03T08:43:02;22.40;55.20
41533;DHT22;27262;-35.248;149.138;2023-02-03T08:45:33;22.40;55.20
41533;DHT22;27262;-35.248;149.138;2023-02-03T08:48:03;22.40;55.30
41533;DHT22;27262;-35.248;149.138;2023-02-03T08:50:33;22.40;55.30
41533;DHT22;27262;-35.248;149.138;2023-02-03T08:53:04;22.40;55.30
41533;DHT22;27262;-35.248;149.138;2023-02-03T08:55:37;22.40;55.20
41533;DHT22;27262;-35.248;149.138;2023-02-03T08:58:07;22.40;55.10
41533;DHT22;27262;-35.248;149.138;2023-02-03T09:00:38;22.40;55.10
41533;DHT22;27262;-35.248;149.138;2023-02-03T09:03:08;22.40;55.10
41533;DHT22;27262;-35.248;149.138;2023-02-03T09:05:38;22.40;55.20
41533;DHT22;27262;-35.248;149.138;2023-02-03T09:08:09;22.40;55.20
41533;DHT22;27262;-35.248;149.138;2023-02-03T09:10:39;22.30;55.00
41533;DHT22;27262;-35.248;149.138;2023-02-03T09:13:09;22.30;54.90
41533;DHT22;27262;-35.248;149.138;2023-02-03T09:15:41;22.30;55.60
41533;DHT22;27262;-35.248;149.138;2023-02-03T09:18:12;22.30;54.90
41533;DHT22;27262;-35.248;149.138;2023-02-03T09:20:43;22.30;55.00
41533;DHT22;27262;-35.248;149.138;2023-02-03T09:23:14;22.30;55.00
41533;DHT22;27262;-35.248;149.138;2023-02-03T09:25:46;22.30;55.00
41533;DHT22;27262;-35.248;149.138;2023-02-03T09:28:17;22.30;55.00
41533;DHT22;27262;-35.248;149.138;2023-02-03T09:30:48;22.30;55.00
41533;DHT22;27262;-35.248;149.138;2023-02-03T09:33:19;22.30;55.00
41533;DHT22;27262;-35.248;149.138;2023-02-03T09:35:54;22.30;55.00
41533;DHT22;27262;-35.248;149.138;2023-02-03T09:38:27;22.20;54.90
41533;DHT22;27262;-35.248;149.138;2023-02-03T09:44:11;22.30;55.60
41533;DHT22;27262;-35.248;149.138;2023-02-03T09:46:46;22.30;55.00
41533;DHT22;27262;-35.248;149.138;2023-02-03T09:57:51;22.20;54.80
41533;DHT22;27262;-35.248;149.138;2023-02-03T10:00:41;22.20;54.70
41533;DHT22;27262;-35.248;149.138;2023-02-03T10:06:32;22.20;54.50
41533;DHT22;27262;-35.248;149.138;2023-02-03T10:15:33;22.10;54.40
41533;DHT22;27262;-35.248;149.138;2023-02-03T10:18:22;22.10;54.30
41533;DHT22;27262;-35.248;149.138;2023-02-03T10:20:57;22.10;54.50
41533;DHT22;27262;-35.248;149.138;2023-02-03T10:23:38;22.10;54.60
41533;DHT22;27262;-35.248;149.138;2023-02-03T10:26:16;22.10;54.60
41533;DHT22;27262;-35.248;149.138;2023-02-03T10:28:54;22.10;54.70
41533;DHT22;27262;-35.248;149.138;2023-02-03T10:31:32;22.10;54.80
41533;DHT22;27262;-35.248;149.138;2023-02-03T10:34:12;22.10;54.80
41533;DHT22;27262;-35.248;149.138;2023-02-03T10:39:47;22.10;54.90
41533;DHT22;27262;-35.248;149.138;2023-02-03T10:42:19;22.10;54.90
41533;DHT22;27262;-35.248;149.138;2023-02-03T10:44:56;22.10;54.90
41533;DHT22;27262;-35.248;149.138;2023-02-03T10:47:31;22.10;54.90
41533;DHT22;27262;-35.248;149.138;2023-02-03T10:50:26;22.10;55.00
41533;DHT22;27262;-35.248;149.138;2023-02-03T10:53:19;22.10;54.90
41533;DHT22;27262;-35.248;149.138;2023-02-03T10:56:04;22.10;54.90
41533;DHT22;27262;-35.248;149.138;2023-02-03T10:58:37;22.10;55.00
41533;DHT22;27262;-35.248;149.138;2023-02-03T11:01:13;22.00;55.00
41533;DHT22;27262;-35.248;149.138;2023-02-03T11:03:54;22.00;54.90
41533;DHT22;27262;-35.248;149.138;2023-02-03T11:06:26;22.00;55.00
41533;DHT22;27262;-35.248;149.138;2023-02-03T11:08:57;22.00;55.00
41533;DHT22;27262;-35.248;149.138;2023-02-03T11:11:30;22.00;55.00
41533;DHT22;27262;-35.248;149.138;2023-02-03T11:16:34;22.00;55.00
41533;DHT22;27262;-35.248;149.138;2023-02-03T11:19:17;22.00;55.00
41533;DHT22;27262;-35.248;149.138;2023-02-03T11:21:52;22.00;55.00
41533;DHT22;27262;-35.248;149.138;2023-02-03T11:24:32;22.00;55.00
41533;DHT22;27262;-35.248;149.138;2023-02-03T11:27:10;22.00;55.00
41533;DHT22;27262;-35.248;149.138;2023-02-03T11:29:54;21.90;55.00
41533;DHT22;27262;-35.248;149.138;2023-02-03T11:32:37;21.90;55.00
41533;DHT22;27262;-35.248;149.138;2023-02-03T11:35:19;21.90;55.10
41533;DHT22;27262;-35.248;149.138;2023-02-03T11:37:53;21.90;55.00
41533;DHT22;27262;-35.248;149.138;2023-02-03T11:40:34;21.90;55.10
41533;DHT22;27262;-35.248;149.138;2023-02-03T11:43:26;21.90;55.10
41533;DHT22;27262;-35.248;149.138;2023-02-03T11:46:04;21.90;55.00
41533;DHT22;27262;-35.248;149.138;2023-02-03T11:49:07;21.90;55.10
41533;DHT22;27262;-35.248;149.138;2023-02-03T11:55:06;21.90;55.10
41533;DHT22;27262;-35.248;149.138;2023-02-03T12:00:23;21.80;55.10
41533;DHT22;27262;-35.248;149.138;2023-02-03T12:03:23;21.80;55.10
41533;DHT22;27262;-35.248;149.138;2023-02-03T12:25:47;21.70;55.20
41533;DHT22;27262;-35.248;149.138;2023-02-03T12:37:22;21.70;55.30
41533;DHT22;27262;-35.248;149.138;2023-02-03T12:43:49;21.70;55.30
41533;DHT22;27262;-35.248;149.138;2023-02-03T12:46:37;21.70;55.40
41533;DHT22;27262;-35.248;149.138;2023-02-03T12:49:12;21.60;55.40
41533;DHT22;27262;-35.248;149.138;2023-02-03T12:57:39;21.60;55.40
41533;DHT22;27262;-35.248;149.138;2023-02-03T13:12:02;21.60;55.50
41533;DHT22;27262;-35.248;149.138;2023-02-03T13:20:24;21.50;55.50
41533;DHT22;27262;-35.248;149.138;2023-02-03T13:22:57;21.50;55.60
41533;DHT22;27262;-35.248;149.138;2023-02-03T13:31:07;21.50;55.60
41533;DHT22;27262;-35.248;149.138;2023-02-03T13:33:59;21.50;55.60
41533;DHT22;27262;-35.248;149.138;2023-02-03T13:40:24;21.40;55.60
41533;DHT22;27262;-35.248;149.138;2023-02-03T13:42:59;21.40;55.60
41533;DHT22;27262;-35.248;149.138;2023-02-03T13:45:47;21.40;55.60
41533;DHT22;27262;-35.248;149.138;2023-02-03T13:48:27;21.40;55.60
41533;DHT22;27262;-35.248;149.138;2023-02-03T13:51:06;21.40;55.70
41533;DHT22;27262;-35.248;149.138;2023-02-03T13:53:39;21.40;55.70
41533;DHT22;27262;-35.248;149.138;2023-02-03T13:56:24;21.40;55.70
41533;DHT22;27262;-35.248;149.138;2023-02-03T14:01:38;21.30;55.70
41533;DHT22;27262;-35.248;149.138;2023-02-03T14:07:02;21.40;55.70
41533;DHT22;27262;-35.248;149.138;2023-02-03T14:09:34;21.30;55.80
41533;DHT22;27262;-35.248;149.138;2023-02-03T14:25:28;21.20;56.40
41533;DHT22;27262;-35.248;149.138;2023-02-03T14:28:13;21.20;55.70
41533;DHT22;27262;-35.248;149.138;2023-02-03T14:31:03;21.30;55.80
41533;DHT22;27262;-35.248;149.138;2023-02-03T14:34:10;21.20;55.70
41533;DHT22;27262;-35.248;149.138;2023-02-03T14:36:51;21.20;55.70
41533;DHT22;27262;-35.248;149.138;2023-02-03T15:00:24;21.10;55.80
41533;DHT22;27262;-35.248;149.138;2023-02-03T15:08:32;21.10;56.00
41533;DHT22;27262;-35.248;149.138;2023-02-03T15:13:52;21.10;55.90
41533;DHT22;27262;-35.248;149.138;2023-02-03T15:16:24;21.00;55.90
41533;DHT22;27262;-35.248;149.138;2023-02-03T15:18:58;21.00;55.90
41533;DHT22;27262;-35.248;149.138;2023-02-03T15:21:29;21.00;55.90
41533;DHT22;27262;-35.248;149.138;2023-02-03T15:24:00;21.00;55.90
41533;DHT22;27262;-35.248;149.138;2023-02-03T15:26:30;21.00;55.90
41533;DHT22;27262;-35.248;149.138;2023-02-03T15:29:03;21.00;55.90
41533;DHT22;27262;-35.248;149.138;2023-02-03T15:31:42;21.00;55.90
41533;DHT22;27262;-35.248;149.138;2023-02-03T15:34:38;21.00;55.90
41533;DHT22;27262;-35.248;149.138;2023-02-03T15:37:19;21.00;55.80
41533;DHT22;27262;-35.248;149.138;2023-02-03T15:45:29;20.90;55.90
41533;DHT22;27262;-35.248;149.138;2023-02-03T15:48:37;20.90;55.90
41533;DHT22;27262;-35.248;149.138;2023-02-03T15:56:47;20.90;55.90
41533;DHT22;27262;-35.248;149.138;2023-02-03T15:59:24;20.90;55.90
41533;DHT22;27262;-35.248;149.138;2023-02-03T16:01:56;20.90;56.00
41533;DHT22;27262;-35.248;149.138;2023-02-03T16:04:28;20.90;56.00
41533;DHT22;27262;-35.248;149.138;2023-02-03T16:06:59;20.90;56.00
41533;DHT22;27262;-35.248;149.138;2023-02-03T16:09:43;20.90;56.10
41533;DHT22;27262;-35.248;149.138;2023-02-03T16:14:56;20.90;56.00
41533;DHT22;27262;-35.248;149.138;2023-02-03T16:23:16;20.80;56.00
41533;DHT22;27262;-35.248;149.138;2023-02-03T16:26:05;20.80;56.00
41533;DHT22;27262;-35.248;149.138;2023-02-03T16:28:36;20.80;56.10
41533;DHT22;27262;-35.248;149.138;2023-02-03T16:31:24;20.80;56.20
41533;DHT22;27262;-35.248;149.138;2023-02-03T16:34:15;20.80;56.20
41533;DHT22;27262;-35.248;149.138;2023-02-03T16:37:23;20.80;56.20
41533;DHT22;27262;-35.248;149.138;2023-02-03T16:40:16;20.70;56.10
41533;DHT22;27262;-35.248;149.138;2023-02-03T16:43:10;20.70;56.20
41533;DHT22;27262;-35.248;149.138;2023-02-03T16:45:59;20.70;56.20
41533;DHT22;27262;-35.248;149.138;2023-02-03T16:48:47;20.70;56.80
41533;DHT22;27262;-35.248;149.138;2023-02-03T16:51:41;20.70;56.30
41533;DHT22;27262;-35.248;149.138;2023-02-03T16:54:13;20.70;56.30
41533;DHT22;27262;-35.248;149.138;2023-02-03T16:56:47;20.70;56.30
41533;DHT22;27262;-35.248;149.138;2023-02-03T16:59:17;20.70;56.30
41533;DHT22;27262;-35.248;149.138;2023-02-03T17:01:48;20.60;56.20
41533;DHT22;27262;-35.248;149.138;2023-02-03T17:04:18;20.60;56.30
41533;DHT22;27262;-35.248;149.138;2023-02-03T17:06:49;20.70;56.30
41533;DHT22;27262;-35.248;149.138;2023-02-03T17:09:19;20.60;56.20
41533;DHT22;27262;-35.248;149.138;2023-02-03T17:11:52;20.60;56.20
41533;DHT22;27262;-35.248;149.138;2023-02-03T17:14:22;20.60;56.20
41533;DHT22;27262;-35.248;149.138;2023-02-03T17:16:53;20.60;56.30
41533;DHT22;27262;-35.248;149.138;2023-02-03T17:19:23;20.60;56.30
41533;DHT22;27262;-35.248;149.138;2023-02-03T17:21:54;20.60;56.30
41533;DHT22;27262;-35.248;149.138;2023-02-03T17:24:24;20.60;56.30
41533;DHT22;27262;-35.248;149.138;2023-02-03T17:26:55;20.60;56.30
41533;DHT22;27262;-35.248;149.138;2023-02-03T17:29:26;20.50;56.30
41533;DHT22;27262;-35.248;149.138;2023-02-03T17:31:56;20.50;56.30
41533;DHT22;27262;-35.248;149.138;2023-02-03T17:34:27;20.50;56.40
41533;DHT22;27262;-35.248;149.138;2023-02-03T17:36:57;20.50;56.40
41533;DHT22;27262;-35.248;149.138;2023-02-03T17:39:27;20.50;56.40
41533;DHT22;27262;-35.248;149.138;2023-02-03T17:42:14;20.50;56.40
41533;DHT22;27262;-35.248;149.138;2023-02-03T17:45:00;20.50;56.40
41533;DHT22;27262;-35.248;149.138;2023-02-03T17:47:47;20.50;56.40
41533;DHT22;27262;-35.248;149.138;2023-02-03T17:50:34;20.40;56.40
41533;DHT22;27262;-35.248;149.138;2023-02-03T17:53:20;20.40;56.50
41533;DHT22;27262;-35.248;149.138;2023-02-03T17:55:51;20.40;56.50
41533;DHT22;27262;-35.248;149.138;2023-02-03T17:58:21;20.40;56.50
41533;DHT22;27262;-35.248;149.138;2023-02-03T18:00:52;20.40;56.50
41533;DHT22;27262;-35.248;149.138;2023-02-03T18:03:22;20.40;56.50
41533;DHT22;27262;-35.248;149.138;2023-02-03T18:05:52;20.40;56.50
41533;DHT22;27262;-35.248;149.138;2023-02-03T18:08:23;20.40;56.50
41533;DHT22;27262;-35.248;149.138;2023-02-03T18:10:56;20.40;56.50
41533;DHT22;27262;-35.248;149.138;2023-02-03T18:13:28;20.30;56.50
41533;DHT22;27262;-35.248;149.138;2023-02-03T18:16:02;20.30;56.50
41533;DHT22;27262;-35.248;149.138;2023-02-03T18:18:33;20.30;56.60
41533;DHT22;27262;-35.248;149.138;2023-02-03T18:21:04;20.30;56.60
41533;DHT22;27262;-35.248;149.138;2023-02-03T18:23:36;20.30;56.60
41533;DHT22;27262;-35.248;149.138;2023-02-03T18:26:08;20.30;56.60
41533;DHT22;27262;-35.248;149.138;2023-02-03T18:28:39;20.30;56.60
41533;DHT22;27262;-35.248;149.138;2023-02-03T18:31:12;20.30;56.60
41533;DHT22;27262;-35.248;149.138;2023-02-03T18:33:46;20.30;56.70
41533;DHT22;27262;-35.248;149.138;2023-02-03T18:36:16;20.30;56.60
41533;DHT22;27262;-35.248;149.138;2023-02-03T18:38:46;20.30;56.70
41533;DHT22;27262;-35.248;149.138;2023-02-03T18:41:20;20.30;56.70
41533;DHT22;27262;-35.248;149.138;2023-02-03T18:43:51;20.30;56.70
41533;DHT22;27262;-35.248;149.138;2023-02-03T18:46:24;20.30;56.70
41533;DHT22;27262;-35.248;149.138;2023-02-03T18:48:55;20.20;56.70
41533;DHT22;27262;-35.248;149.138;2023-02-03T18:51:26;20.20;56.70
41533;DHT22;27262;-35.248;149.138;2023-02-03T18:54:00;20.20;56.70
41533;DHT22;27262;-35.248;149.138;2023-02-03T18:56:30;20.20;56.80